sensor_id;sensor_type;location;lat;lon;timestamp;temperature;humidity
18225;DHT22;9237;48.590;8.854;2023-04-24T00:00:37;9.30;99.90
18225;DHT22;9237;48.590;8.854;2023-04-24T00:03:06;9.10;99.90
18225;DHT22;9237;48.590;8.854;2023-04-24T00:05:33;9.10;99.90
18225;DHT22;9237;48.590;8.854;2023-04-24T00:08:00;9.70;99.90
18225;DHT22;9237;48.590;8.854;2023-04-24T00:10:26;9.10;99.90
18225;DHT22;9237;48.590;8.854;2023-04-24T00:12:53;9.00;99.90
18225;DHT22;9237;48.590;8.854;2023-04-24T00:15:20;9.00;99.90
18225;DHT22;9237;48.590;8.854;2023-04-24T00:17:48;9.00;99.90
18225;DHT22;9237;48.590;8.854;2023-04-24T00:20:15;9.00;99.90
18225;DHT22;9237;48.590;8.854;2023-04-24T00:22:42;8.90;99.90
18225;DHT22;9237;48.590;8.854;2023-04-24T00:25:09;9.00;99.90
18225;DHT22;9237;48.590;8.854;2023-04-24T00:27:36;9.00;99.90
18225;DHT22;9237;48.590;8.854;2023-04-24T00:30:05;8.90;99.90
18225;DHT22;9237;48.590;8.854;2023-04-24T00:32:32;9.00;99.90
18225;DHT22;9237;48.590;8.854;2023-04-24T00:35:00;9.00;99.90
18225;DHT22;9237;48.590;8.854;2023-04-24T00:37:27;9.00;99.90
18225;DHT22;9237;48.590;8.854;2023-04-24T00:39:54;9.00;99.90
18225;DHT22;9237;48.590;8.854;2023-04-24T00:42:20;9.00;99.90
18225;DHT22;9237;48.590;8.854;2023-04-24T00:44:47;9.00;99.90
18225;DHT22;9237;48.590;8.854;2023-04-24T00:47:14;8.90;99.90
18225;DHT22;9237;48.590;8.854;2023-04-24T00:49:41;9.00;99.90
18225;DHT22;9237;48.590;8.854;2023-04-24T00:52:09;8.90;99.90
18225;DHT22;9237;48.590;8.854;2023-04-24T00:54:37;9.00;99.90
18225;DHT22;9237;48.590;8.854;2023-04-24T00:57:05;9.00;99.90
18225;DHT22;9237;48.590;8.854;2023-04-24T00:59:32;9.00;99.90
18225;DHT22;9237;48.590;8.854;2023-04-24T01:01:59;9.00;99.90
18225;DHT22;9237;48.590;8.854;2023-04-24T01:04:26;9.00;99.90
18225;DHT22;9237;48.590;8.854;2023-04-24T01:06:54;9.10;99.90
18225;DHT22;9237;48.590;8.854;2023-04-24T01:09:23;9.10;99.90
18225;DHT22;9237;48.590;8.854;2023-04-24T01:11:50;9.10;99.90
18225;DHT22;9237;48.590;8.854;2023-04-24T01:14:17;9.10;99.90
18225;DHT22;9237;48.590;8.854;2023-04-24T01:16:44;9.20;99.90
18225;DHT22;9237;48.590;8.854;2023-04-24T01:19:11;9.20;99.90
18225;DHT22;9237;48.590;8.854;2023-04-24T01:21:38;9.20;99.90
18225;DHT22;9237;48.590;8.854;2023-04-24T01:24:07;9.20;99.90
18225;DHT22;9237;48.590;8.854;2023-04-24T01:26:33;9.20;99.90
18225;DHT22;9237;48.590;8.854;2023-04-24T01:29:01;9.10;99.90
18225;DHT22;9237;48.590;8.854;2023-04-24T01:31:28;9.10;99.90
18225;DHT22;9237;48.590;8.854;2023-04-24T01:33:56;9.10;99.90
18225;DHT22;9237;48.590;8.854;2023-04-24T01:36:24;9.20;99.90
18225;DHT22;9237;48.590;8.854;2023-04-24T01:38:52;9.20;99.90
18225;DHT22;9237;48.590;8.854;2023-04-24T01:41:21;9.20;99.90
18225;DHT22;9237;48.590;8.854;2023-04-24T01:43:48;9.20;99.90
18225;DHT22;9237;48.590;8.854;2023-04-24T01:46:15;9.20;99.90
18225;DHT22;9237;48.590;8.854;2023-04-24T01:48:42;9.10;99.90
18225;DHT22;9237;48.590;8.854;2023-04-24T01:51:09;9.10;99.90
18225;DHT22;9237;48.590;8.854;2023-04-24T01:53:36;9.10;99.90
18225;DHT22;9237;48.590;8.854;2023-04-24T01:56:03;9.00;99.90
18225;DHT22;9237;48.590;8.854;2023-04-24T01:58:31;8.90;99.90
18225;DHT22;9237;48.590;8.854;2023-04-24T02:00:59;8.90;99.90
18225;DHT22;9237;48.590;8.854;2023-04-24T02:03:26;8.80;99.90
18225;DHT22;9237;48.590;8.854;2023-04-24T02:05:53;8.70;99.90
18225;DHT22;9237;48.590;8.854;2023-04-24T02:08:19;8.70;99.90
18225;DHT22;9237;48.590;8.854;2023-04-24T02:10:46;8.70;99.90
18225;DHT22;9237;48.590;8.854;2023-04-24T02:13:13;8.70;99.90
18225;DHT22;9237;48.590;8.854;2023-04-24T02:15:41;8.70;99.90
18225;DHT22;9237;48.590;8.854;2023-04-24T02:18:08;8.70;99.90
18225;DHT22;9237;48.590;8.854;2023-04-24T02:20:36;8.80;99.90
18225;DHT22;9237;48.590;8.854;2023-04-24T02:23:03;8.80;99.90
18225;DHT22;9237;48.590;8.854;2023-04-24T02:25:30;8.80;99.90
18225;DHT22;9237;48.590;8.854;2023-04-24T02:27:57;8.80;99.90
18225;DHT22;9237;48.590;8.854;2023-04-24T02:30:24;8.80;99.90
18225;DHT22;9237;48.590;8.854;2023-04-24T02:32:52;8.80;99.90
18225;DHT22;9237;48.590;8.854;2023-04-24T02:35:19;9.00;99.90
18225;DHT22;9237;48.590;8.854;2023-04-24T02:37:45;8.90;99.90
18225;DHT22;9237;48.590;8.854;2023-04-24T02:40:12;8.90;99.90
18225;DHT22;9237;48.590;8.854;2023-04-24T02:42:39;7.10;99.90
18225;DHT22;9237;48.590;8.854;2023-04-24T02:45:07;8.90;99.90
18225;DHT22;9237;48.590;8.854;2023-04-24T02:47:34;8.80;99.90
18225;DHT22;9237;48.590;8.854;2023-04-24T02:50:03;8.80;99.90
18225;DHT22;9237;48.590;8.854;2023-04-24T02:52:30;8.90;99.90
18225;DHT22;9237;48.590;8.854;2023-04-24T02:54:57;8.80;99.90
18225;DHT22;9237;48.590;8.854;2023-04-24T02:57:23;8.80;99.90
18225;DHT22;9237;48.590;8.854;2023-04-24T02:59:50;8.80;99.90
18225;DHT22;9237;48.590;8.854;2023-04-24T03:02:17;8.80;99.90
18225;DHT22;9237;48.590;8.854;2023-04-24T03:04:44;8.80;99.90
18225;DHT22;9237;48.590;8.854;2023-04-24T03:07:12;8.80;99.90
18225;DHT22;9237;48.590;8.854;2023-04-24T03:09:39;8.80;99.90
18225;DHT22;9237;48.590;8.854;2023-04-24T03:12:06;8.80;99.90
18225;DHT22;9237;48.590;8.854;2023-04-24T03:14:33;8.80;99.90
18225;DHT22;9237;48.590;8.854;2023-04-24T03:17:00;8.80;99.90
18225;DHT22;9237;48.590;8.854;2023-04-24T03:19:27;8.70;99.90
18225;DHT22;9237;48.590;8.854;2023-04-24T03:21:53;8.60;99.90
18225;DHT22;9237;48.590;8.854;2023-04-24T03:24:21;8.60;99.90
18225;DHT22;9237;48.590;8.854;2023-04-24T03:26:48;8.50;99.90
18225;DHT22;9237;48.590;8.854;2023-04-24T03:29:15;8.40;99.90
18225;DHT22;9237;48.590;8.854;2023-04-24T03:31:42;8.30;99.90
18225;DHT22;9237;48.590;8.854;2023-04-24T03:34:09;8.30;99.90
18225;DHT22;9237;48.590;8.854;2023-04-24T03:36:35;8.30;99.90
18225;DHT22;9237;48.590;8.854;2023-04-24T03:39:02;8.20;99.90
18225;DHT22;9237;48.590;8.854;2023-04-24T03:41:30;8.20;99.90
18225;DHT22;9237;48.590;8.854;2023-04-24T03:43:57;8.10;99.90
18225;DHT22;9237;48.590;8.854;2023-04-24T03:46:24;8.10;99.90
18225;DHT22;9237;48.590;8.854;2023-04-24T03:48:51;8.00;99.90
18225;DHT22;9237;48.590;8.854;2023-04-24T03:51:18;7.90;99.90
18225;DHT22;9237;48.590;8.854;2023-04-24T03:53:44;7.90;99.90
18225;DHT22;9237;48.590;8.854;2023-04-24T03:56:11;8.00;99.90
18225;DHT22;9237;48.590;8.854;2023-04-24T03:58:39;8.10;99.90
18225;DHT22;9237;48.590;8.854;2023-04-24T04:01:06;8.00;99.90
18225;DHT22;9237;48.590;8.854;2023-04-24T04:03:33;8.10;99.90
18225;DHT22;9237;48.590;8.854;2023-04-24T04:06:00;8.10;99.90
18225;DHT22;9237;48.590;8.854;2023-04-24T04:08:27;8.10;99.90
18225;DHT22;9237;48.590;8.854;2023-04-24T04:10:53;8.10;99.90
18225;DHT22;9237;48.590;8.854;2023-04-24T04:13:20;8.10;99.90
18225;DHT22;9237;48.590;8.854;2023-04-24T04:15:48;8.20;99.90
18225;DHT22;9237;48.590;8.854;2023-04-24T04:18:15;8.30;99.90
18225;DHT22;9237;48.590;8.854;2023-04-24T04:20:42;8.40;99.90
18225;DHT22;9237;48.590;8.854;2023-04-24T04:23:09;8.40;99.90
18225;DHT22;9237;48.590;8.854;2023-04-24T04:25:36;8.50;99.90
18225;DHT22;9237;48.590;8.854;2023-04-24T04:28:02;8.50;99.90
18225;DHT22;9237;48.590;8.854;2023-04-24T04:30:29;8.60;99.90
18225;DHT22;9237;48.590;8.854;2023-04-24T04:32:59;8.60;99.90
18225;DHT22;9237;48.590;8.854;2023-04-24T04:35:26;8.60;99.90
18225;DHT22;9237;48.590;8.854;2023-04-24T04:37:53;8.60;99.90
18225;DHT22;9237;48.590;8.854;2023-04-24T04:40:20;8.60;99.90
18225;DHT22;9237;48.590;8.854;2023-04-24T04:42:46;8.70;99.90
18225;DHT22;9237;48.590;8.854;2023-04-24T04:45:13;8.70;99.90
18225;DHT22;9237;48.590;8.854;2023-04-24T04:47:48;8.70;99.90
18225;DHT22;9237;48.590;8.854;2023-04-24T04:50:16;8.70;99.90
18225;DHT22;9237;48.590;8.854;2023-04-24T04:52:44;8.70;99.90
18225;DHT22;9237;48.590;8.854;2023-04-24T04:55:11;8.70;99.90
18225;DHT22;9237;48.590;8.854;2023-04-24T04:57:38;8.70;99.90
18225;DHT22;9237;48.590;8.854;2023-04-24T05:00:06;8.70;99.90
18225;DHT22;9237;48.590;8.854;2023-04-24T05:02:35;8.70;99.90
18225;DHT22;9237;48.590;8.854;2023-04-24T05:05:02;8.60;99.90
18225;DHT22;9237;48.590;8.854;2023-04-24T05:07:31;8.60;99.90
18225;DHT22;9237;48.590;8.854;2023-04-24T05:09:58;8.50;99.90
18225;DHT22;9237;48.590;8.854;2023-04-24T05:12:24;8.50;99.90
18225;DHT22;9237;48.590;8.854;2023-04-24T05:14:52;8.50;99.90
18225;DHT22;9237;48.590;8.854;2023-04-24T05:17:19;8.40;99.90
18225;DHT22;9237;48.590;8.854;2023-04-24T05:19:46;8.40;99.90
18225;DHT22;9237;48.590;8.854;2023-04-24T05:22:13;8.40;99.90
18225;DHT22;9237;48.590;8.854;2023-04-24T05:24:41;8.40;99.90
18225;DHT22;9237;48.590;8.854;2023-04-24T05:27:08;8.40;99.90
18225;DHT22;9237;48.590;8.854;2023-04-24T05:29:35;8.40;99.90
18225;DHT22;9237;48.590;8.854;2023-04-24T05:32:02;8.40;99.90
18225;DHT22;9237;48.590;8.854;2023-04-24T05:34:29;8.40;99.90
18225;DHT22;9237;48.590;8.854;2023-04-24T05:36:55;8.30;99.90
18225;DHT22;9237;48.590;8.854;2023-04-24T05:39:22;8.20;99.90
18225;DHT22;9237;48.590;8.854;2023-04-24T05:41:51;8.20;99.90
18225;DHT22;9237;48.590;8.854;2023-04-24T05:44:18;8.20;99.90
18225;DHT22;9237;48.590;8.854;2023-04-24T05:46:45;8.20;99.90
18225;DHT22;9237;48.590;8.854;2023-04-24T05:49:12;8.10;99.90
18225;DHT22;9237;48.590;8.854;2023-04-24T05:51:38;8.20;99.90
18225;DHT22;9237;48.590;8.854;2023-04-24T05:54:05;8.20;99.90
18225;DHT22;9237;48.590;8.854;2023-04-24T05:56:32;8.20;99.90
18225;DHT22;9237;48.590;8.854;2023-04-24T05:59:00;8.40;99.90
18225;DHT22;9237;48.590;8.854;2023-04-24T06:01:27;8.80;99.90
18225;DHT22;9237;48.590;8.854;2023-04-24T06:03:54;9.60;99.90
18225;DHT22;9237;48.590;8.854;2023-04-24T06:06:20;10.20;99.90
18225;DHT22;9237;48.590;8.854;2023-04-24T06:08:47;10.70;99.90
18225;DHT22;9237;48.590;8.854;2023-04-24T06:11:14;11.00;99.90
18225;DHT22;9237;48.590;8.854;2023-04-24T06:13:41;10.90;99.90
18225;DHT22;9237;48.590;8.854;2023-04-24T06:16:09;11.20;99.90
18225;DHT22;9237;48.590;8.854;2023-04-24T06:18:36;11.40;99.90
18225;DHT22;9237;48.590;8.854;2023-04-24T06:21:04;11.70;99.90
18225;DHT22;9237;48.590;8.854;2023-04-24T06:23:31;12.10;99.90
18225;DHT22;9237;48.590;8.854;2023-04-24T06:25:58;12.30;99.90
18225;DHT22;9237;48.590;8.854;2023-04-24T06:28:26;12.50;99.90
18225;DHT22;9237;48.590;8.854;2023-04-24T06:30:52;12.70;99.90
18225;DHT22;9237;48.590;8.854;2023-04-24T06:33:20;12.80;99.90
18225;DHT22;9237;48.590;8.854;2023-04-24T06:35:47;12.60;99.90
18225;DHT22;9237;48.590;8.854;2023-04-24T06:38:14;11.90;99.90
18225;DHT22;9237;48.590;8.854;2023-04-24T06:40:41;11.40;99.90
18225;DHT22;9237;48.590;8.854;2023-04-24T06:43:08;11.10;99.90
18225;DHT22;9237;48.590;8.854;2023-04-24T06:45:36;11.00;99.90
18225;DHT22;9237;48.590;8.854;2023-04-24T06:48:03;10.90;99.90
18225;DHT22;9237;48.590;8.854;2023-04-24T06:50:32;10.80;99.90
18225;DHT22;9237;48.590;8.854;2023-04-24T06:52:58;10.70;99.90
18225;DHT22;9237;48.590;8.854;2023-04-24T06:55:25;10.60;99.90
18225;DHT22;9237;48.590;8.854;2023-04-24T06:57:52;10.40;99.90
18225;DHT22;9237;48.590;8.854;2023-04-24T07:00:19;9.90;99.90
18225;DHT22;9237;48.590;8.854;2023-04-24T07:02:46;9.70;99.90
18225;DHT22;9237;48.590;8.854;2023-04-24T07:05:13;9.50;99.90
18225;DHT22;9237;48.590;8.854;2023-04-24T07:07:42;9.40;99.90
18225;DHT22;9237;48.590;8.854;2023-04-24T07:10:10;9.40;99.90
18225;DHT22;9237;48.590;8.854;2023-04-24T07:12:37;9.60;99.90
18225;DHT22;9237;48.590;8.854;2023-04-24T07:15:04;9.90;99.90
18225;DHT22;9237;48.590;8.854;2023-04-24T07:17:31;10.50;99.90
18225;DHT22;9237;48.590;8.854;2023-04-24T07:19:58;11.20;99.90
18225;DHT22;9237;48.590;8.854;2023-04-24T07:22:25;11.60;99.90
18225;DHT22;9237;48.590;8.854;2023-04-24T07:24:53;11.50;99.90
18225;DHT22;9237;48.590;8.854;2023-04-24T07:27:20;11.40;99.90
18225;DHT22;9237;48.590;8.854;2023-04-24T07:29:47;11.40;99.90
18225;DHT22;9237;48.590;8.854;2023-04-24T07:32:14;11.50;99.90
18225;DHT22;9237;48.590;8.854;2023-04-24T07:34:40;11.60;99.90
18225;DHT22;9237;48.590;8.854;2023-04-24T07:37:07;11.30;99.90
18225;DHT22;9237;48.590;8.854;2023-04-24T07:39:34;11.50;99.90
18225;DHT22;9237;48.590;8.854;2023-04-24T07:42:02;11.30;99.90
18225;DHT22;9237;48.590;8.854;2023-04-24T07:44:29;11.20;99.90
18225;DHT22;9237;48.590;8.854;2023-04-24T07:46:57;11.50;99.90
18225;DHT22;9237;48.590;8.854;2023-04-24T07:49:24;11.60;99.90
18225;DHT22;9237;48.590;8.854;2023-04-24T07:51:51;11.60;99.90
18225;DHT22;9237;48.590;8.854;2023-04-24T07:54:18;11.70;99.90
18225;DHT22;9237;48.590;8.854;2023-04-24T07:56:45;11.80;99.90
18225;DHT22;9237;48.590;8.854;2023-04-24T07:59:13;11.80;99.90
18225;DHT22;9237;48.590;8.854;2023-04-24T08:01:39;11.80;99.90
18225;DHT22;9237;48.590;8.854;2023-04-24T08:04:06;11.70;99.90
18225;DHT22;9237;48.590;8.854;2023-04-24T08:06:33;11.70;99.90
18225;DHT22;9237;48.590;8.854;2023-04-24T08:09:00;12.20;99.90
18225;DHT22;9237;48.590;8.854;2023-04-24T08:11:27;12.50;99.90
18225;DHT22;9237;48.590;8.854;2023-04-24T08:13:54;12.70;99.90
18225;DHT22;9237;48.590;8.854;2023-04-24T08:16:22;12.50;99.90
18225;DHT22;9237;48.590;8.854;2023-04-24T08:18:49;12.90;99.90
18225;DHT22;9237;48.590;8.854;2023-04-24T08:21:16;12.90;99.90
18225;DHT22;9237;48.590;8.854;2023-04-24T08:23:44;12.40;99.90
18225;DHT22;9237;48.590;8.854;2023-04-24T08:26:11;13.10;99.90
18225;DHT22;9237;48.590;8.854;2023-04-24T08:28:38;13.00;99.90
18225;DHT22;9237;48.590;8.854;2023-04-24T08:31:05;12.30;99.90
18225;DHT22;9237;48.590;8.854;2023-04-24T08:33:33;11.60;99.90
18225;DHT22;9237;48.590;8.854;2023-04-24T08:36:01;11.30;99.90
18225;DHT22;9237;48.590;8.854;2023-04-24T08:38:28;11.10;99.90
18225;DHT22;9237;48.590;8.854;2023-04-24T08:40:57;10.90;99.90
18225;DHT22;9237;48.590;8.854;2023-04-24T08:43:25;11.20;99.90
18225;DHT22;9237;48.590;8.854;2023-04-24T08:45:52;11.20;99.90
18225;DHT22;9237;48.590;8.854;2023-04-24T08:48:19;11.40;99.90
18225;DHT22;9237;48.590;8.854;2023-04-24T08:50:48;12.10;99.90
18225;DHT22;9237;48.590;8.854;2023-04-24T08:53:18;12.20;99.90
18225;DHT22;9237;48.590;8.854;2023-04-24T08:55:47;12.50;99.90
18225;DHT22;9237;48.590;8.854;2023-04-24T08:58:15;12.30;99.90
18225;DHT22;9237;48.590;8.854;2023-04-24T09:00:43;12.60;99.90
18225;DHT22;9237;48.590;8.854;2023-04-24T09:03:13;12.70;99.90
18225;DHT22;9237;48.590;8.854;2023-04-24T09:05:41;12.90;99.90
18225;DHT22;9237;48.590;8.854;2023-04-24T09:08:13;13.10;99.90
18225;DHT22;9237;48.590;8.854;2023-04-24T09:10:41;13.30;99.90
18225;DHT22;9237;48.590;8.854;2023-04-24T09:13:08;13.50;99.90
18225;DHT22;9237;48.590;8.854;2023-04-24T09:15:35;13.60;99.90
18225;DHT22;9237;48.590;8.854;2023-04-24T09:18:02;13.90;99.90
18225;DHT22;9237;48.590;8.854;2023-04-24T09:20:29;13.90;99.90
18225;DHT22;9237;48.590;8.854;2023-04-24T09:22:57;13.70;99.90
18225;DHT22;9237;48.590;8.854;2023-04-24T09:25:31;13.00;99.90
18225;DHT22;9237;48.590;8.854;2023-04-24T09:28:00;13.40;99.90
18225;DHT22;9237;48.590;8.854;2023-04-24T09:30:28;13.80;99.90
18225;DHT22;9237;48.590;8.854;2023-04-24T09:33:16;13.80;99.90
18225;DHT22;9237;48.590;8.854;2023-04-24T09:35:43;14.10;99.90
18225;DHT22;9237;48.590;8.854;2023-04-24T09:38:14;14.40;99.90
18225;DHT22;9237;48.590;8.854;2023-04-24T09:40:43;14.10;99.90
18225;DHT22;9237;48.590;8.854;2023-04-24T09:43:11;13.90;99.90
18225;DHT22;9237;48.590;8.854;2023-04-24T09:45:38;13.50;99.90
18225;DHT22;9237;48.590;8.854;2023-04-24T09:48:09;13.80;99.90
18225;DHT22;9237;48.590;8.854;2023-04-24T09:50:36;13.70;99.90
18225;DHT22;9237;48.590;8.854;2023-04-24T09:53:04;14.10;99.90
18225;DHT22;9237;48.590;8.854;2023-04-24T09:55:31;13.90;99.90
18225;DHT22;9237;48.590;8.854;2023-04-24T09:58:00;13.50;99.90
18225;DHT22;9237;48.590;8.854;2023-04-24T10:00:32;13.20;99.90
18225;DHT22;9237;48.590;8.854;2023-04-24T10:03:00;12.60;99.90
18225;DHT22;9237;48.590;8.854;2023-04-24T10:05:28;12.40;99.90
18225;DHT22;9237;48.590;8.854;2023-04-24T10:07:57;12.00;99.90
18225;DHT22;9237;48.590;8.854;2023-04-24T10:10:24;13.30;99.90
18225;DHT22;9237;48.590;8.854;2023-04-24T10:12:51;12.60;99.90
18225;DHT22;9237;48.590;8.854;2023-04-24T10:15:20;13.20;99.90
18225;DHT22;9237;48.590;8.854;2023-04-24T10:17:48;13.30;99.90
18225;DHT22;9237;48.590;8.854;2023-04-24T10:20:18;12.80;99.90
18225;DHT22;9237;48.590;8.854;2023-04-24T10:22:47;12.50;99.90
18225;DHT22;9237;48.590;8.854;2023-04-24T10:25:16;12.20;99.90
18225;DHT22;9237;48.590;8.854;2023-04-24T10:27:43;12.00;99.90
18225;DHT22;9237;48.590;8.854;2023-04-24T10:30:12;12.70;99.90
18225;DHT22;9237;48.590;8.854;2023-04-24T10:32:41;13.10;99.90
18225;DHT22;9237;48.590;8.854;2023-04-24T10:35:08;12.70;99.90
18225;DHT22;9237;48.590;8.854;2023-04-24T10:37:39;12.70;99.90
18225;DHT22;9237;48.590;8.854;2023-04-24T10:40:08;13.00;99.90
18225;DHT22;9237;48.590;8.854;2023-04-24T10:42:35;12.90;99.90
18225;DHT22;9237;48.590;8.854;2023-04-24T10:45:06;12.50;99.90
18225;DHT22;9237;48.590;8.854;2023-04-24T10:47:41;12.70;99.90
18225;DHT22;9237;48.590;8.854;2023-04-24T10:50:09;13.30;99.40
18225;DHT22;9237;48.590;8.854;2023-04-24T10:52:45;12.60;99.70
18225;DHT22;9237;48.590;8.854;2023-04-24T10:55:13;12.20;99.90
18225;DHT22;9237;48.590;8.854;2023-04-24T10:57:40;12.40;99.90
18225;DHT22;9237;48.590;8.854;2023-04-24T11:00:27;12.40;99.90
18225;DHT22;9237;48.590;8.854;2023-04-24T11:02:55;12.50;99.90
18225;DHT22;9237;48.590;8.854;2023-04-24T11:05:24;13.00;99.90
18225;DHT22;9237;48.590;8.854;2023-04-24T11:08:13;13.00;98.40
18225;DHT22;9237;48.590;8.854;2023-04-24T11:10:44;12.40;98.90
18225;DHT22;9237;48.590;8.854;2023-04-24T11:13:14;11.70;98.60
18225;DHT22;9237;48.590;8.854;2023-04-24T11:15:41;11.40;98.80
18225;DHT22;9237;48.590;8.854;2023-04-24T11:18:14;11.20;99.10
18225;DHT22;9237;48.590;8.854;2023-04-24T11:20:42;10.80;99.80
18225;DHT22;9237;48.590;8.854;2023-04-24T11:23:12;10.40;99.90
18225;DHT22;9237;48.590;8.854;2023-04-24T11:25:39;10.60;99.90
18225;DHT22;9237;48.590;8.854;2023-04-24T11:28:06;11.50;99.90
18225;DHT22;9237;48.590;8.854;2023-04-24T11:30:33;12.20;99.00
18225;DHT22;9237;48.590;8.854;2023-04-24T11:33:02;13.20;98.40
18225;DHT22;9237;48.590;8.854;2023-04-24T11:35:35;14.10;96.30
18225;DHT22;9237;48.590;8.854;2023-04-24T11:38:03;13.40;96.00
18225;DHT22;9237;48.590;8.854;2023-04-24T11:40:30;13.30;95.60
18225;DHT22;9237;48.590;8.854;2023-04-24T11:43:00;12.90;95.50
18225;DHT22;9237;48.590;8.854;2023-04-24T11:45:29;12.30;96.30
18225;DHT22;9237;48.590;8.854;2023-04-24T11:47:57;12.20;96.90
18225;DHT22;9237;48.590;8.854;2023-04-24T11:50:25;12.10;96.70
18225;DHT22;9237;48.590;8.854;2023-04-24T11:52:54;11.90;96.30
18225;DHT22;9237;48.590;8.854;2023-04-24T11:55:26;12.10;96.00
18225;DHT22;9237;48.590;8.854;2023-04-24T11:57:55;11.90;96.20
18225;DHT22;9237;48.590;8.854;2023-04-24T12:00:24;11.70;96.90
18225;DHT22;9237;48.590;8.854;2023-04-24T12:02:51;11.40;96.50
18225;DHT22;9237;48.590;8.854;2023-04-24T12:05:22;11.30;97.80
18225;DHT22;9237;48.590;8.854;2023-04-24T12:07:49;11.40;98.20
18225;DHT22;9237;48.590;8.854;2023-04-24T12:10:21;11.50;98.30
18225;DHT22;9237;48.590;8.854;2023-04-24T12:12:48;11.30;97.40
18225;DHT22;9237;48.590;8.854;2023-04-24T12:15:18;11.30;98.10
18225;DHT22;9237;48.590;8.854;2023-04-24T12:17:45;11.40;97.90
18225;DHT22;9237;48.590;8.854;2023-04-24T12:20:13;11.50;96.80
18225;DHT22;9237;48.590;8.854;2023-04-24T12:22:45;11.50;97.30
18225;DHT22;9237;48.590;8.854;2023-04-24T12:25:13;11.30;96.90
18225;DHT22;9237;48.590;8.854;2023-04-24T12:27:41;10.90;98.70
18225;DHT22;9237;48.590;8.854;2023-04-24T12:30:12;10.30;99.90
18225;DHT22;9237;48.590;8.854;2023-04-24T12:32:41;10.50;99.90
18225;DHT22;9237;48.590;8.854;2023-04-24T12:35:09;11.90;99.90
18225;DHT22;9237;48.590;8.854;2023-04-24T12:37:36;12.40;99.90
18225;DHT22;9237;48.590;8.854;2023-04-24T12:40:06;12.20;99.40
18225;DHT22;9237;48.590;8.854;2023-04-24T12:42:34;11.90;99.50
18225;DHT22;9237;48.590;8.854;2023-04-24T12:45:04;11.80;98.90
18225;DHT22;9237;48.590;8.854;2023-04-24T12:47:31;11.50;97.10
18225;DHT22;9237;48.590;8.854;2023-04-24T12:49:58;11.30;98.00
18225;DHT22;9237;48.590;8.854;2023-04-24T12:52:27;11.20;98.40
18225;DHT22;9237;48.590;8.854;2023-04-24T12:54:55;11.20;99.00
18225;DHT22;9237;48.590;8.854;2023-04-24T12:57:23;11.10;98.40
18225;DHT22;9237;48.590;8.854;2023-04-24T12:59:50;11.00;97.70
18225;DHT22;9237;48.590;8.854;2023-04-24T13:02:18;10.90;97.00
18225;DHT22;9237;48.590;8.854;2023-04-24T13:04:45;10.80;97.70
18225;DHT22;9237;48.590;8.854;2023-04-24T13:07:13;10.90;98.60
18225;DHT22;9237;48.590;8.854;2023-04-24T13:09:40;10.90;97.30
18225;DHT22;9237;48.590;8.854;2023-04-24T13:12:11;10.80;96.90
18225;DHT22;9237;48.590;8.854;2023-04-24T13:14:38;10.70;96.20
18225;DHT22;9237;48.590;8.854;2023-04-24T13:17:05;10.80;96.00
18225;DHT22;9237;48.590;8.854;2023-04-24T13:19:37;11.00;95.10
18225;DHT22;9237;48.590;8.854;2023-04-24T13:22:05;11.20;96.30
18225;DHT22;9237;48.590;8.854;2023-04-24T13:24:32;11.50;95.60
18225;DHT22;9237;48.590;8.854;2023-04-24T13:26:59;11.60;94.50
18225;DHT22;9237;48.590;8.854;2023-04-24T13:29:26;11.50;94.60
18225;DHT22;9237;48.590;8.854;2023-04-24T13:31:54;11.50;95.10
18225;DHT22;9237;48.590;8.854;2023-04-24T13:34:22;11.60;94.30
18225;DHT22;9237;48.590;8.854;2023-04-24T13:36:50;11.70;93.80
18225;DHT22;9237;48.590;8.854;2023-04-24T13:39:17;11.80;95.00
18225;DHT22;9237;48.590;8.854;2023-04-24T13:41:44;11.70;94.00
18225;DHT22;9237;48.590;8.854;2023-04-24T13:44:13;11.50;94.00
18225;DHT22;9237;48.590;8.854;2023-04-24T13:46:41;11.20;94.20
18225;DHT22;9237;48.590;8.854;2023-04-24T13:49:09;11.00;94.70
18225;DHT22;9237;48.590;8.854;2023-04-24T13:51:36;11.00;95.30
18225;DHT22;9237;48.590;8.854;2023-04-24T13:54:04;11.00;95.20
18225;DHT22;9237;48.590;8.854;2023-04-24T13:56:31;10.90;95.00
18225;DHT22;9237;48.590;8.854;2023-04-24T13:58:57;10.80;94.70
18225;DHT22;9237;48.590;8.854;2023-04-24T14:01:24;10.90;94.60
18225;DHT22;9237;48.590;8.854;2023-04-24T14:03:52;10.90;94.30
18225;DHT22;9237;48.590;8.854;2023-04-24T14:06:19;10.90;95.30
18225;DHT22;9237;48.590;8.854;2023-04-24T14:08:46;10.90;95.70
18225;DHT22;9237;48.590;8.854;2023-04-24T14:11:14;11.00;95.00
18225;DHT22;9237;48.590;8.854;2023-04-24T14:13:41;11.10;94.80
18225;DHT22;9237;48.590;8.854;2023-04-24T14:16:09;11.00;94.20
18225;DHT22;9237;48.590;8.854;2023-04-24T14:21:39;11.20;94.00
18225;DHT22;9237;48.590;8.854;2023-04-24T14:24:06;11.30;94.60
18225;DHT22;9237;48.590;8.854;2023-04-24T14:26:34;11.30;94.60
18225;DHT22;9237;48.590;8.854;2023-04-24T14:29:01;11.40;95.00
18225;DHT22;9237;48.590;8.854;2023-04-24T14:31:28;11.30;94.50
18225;DHT22;9237;48.590;8.854;2023-04-24T14:33:54;11.10;93.80
18225;DHT22;9237;48.590;8.854;2023-04-24T14:36:23;10.90;94.50
18225;DHT22;9237;48.590;8.854;2023-04-24T14:38:51;10.90;94.70
18225;DHT22;9237;48.590;8.854;2023-04-24T14:41:18;11.00;94.80
18225;DHT22;9237;48.590;8.854;2023-04-24T14:43:46;11.00;94.70
18225;DHT22;9237;48.590;8.854;2023-04-24T14:46:13;11.10;95.30
18225;DHT22;9237;48.590;8.854;2023-04-24T14:48:40;11.20;94.80
18225;DHT22;9237;48.590;8.854;2023-04-24T14:51:07;11.30;94.70
18225;DHT22;9237;48.590;8.854;2023-04-24T14:53:34;11.60;94.70
18225;DHT22;9237;48.590;8.854;2023-04-24T14:56:00;11.70;93.80
18225;DHT22;9237;48.590;8.854;2023-04-24T14:58:27;12.40;93.10
18225;DHT22;9237;48.590;8.854;2023-04-24T15:00:55;12.60;92.00
18225;DHT22;9237;48.590;8.854;2023-04-24T15:03:22;12.40;92.30
18225;DHT22;9237;48.590;8.854;2023-04-24T15:05:50;12.40;91.90
18225;DHT22;9237;48.590;8.854;2023-04-24T15:08:17;12.30;91.90
18225;DHT22;9237;48.590;8.854;2023-04-24T15:10:44;12.50;92.30
18225;DHT22;9237;48.590;8.854;2023-04-24T15:13:11;13.40;91.80
18225;DHT22;9237;48.590;8.854;2023-04-24T15:15:38;13.50;90.60
18225;DHT22;9237;48.590;8.854;2023-04-24T15:18:08;13.40;91.10
18225;DHT22;9237;48.590;8.854;2023-04-24T15:20:36;12.50;91.40
18225;DHT22;9237;48.590;8.854;2023-04-24T15:23:04;12.20;93.00
18225;DHT22;9237;48.590;8.854;2023-04-24T15:25:32;12.30;91.80
18225;DHT22;9237;48.590;8.854;2023-04-24T15:27:59;12.40;91.90
18225;DHT22;9237;48.590;8.854;2023-04-24T15:30:26;12.30;91.90
18225;DHT22;9237;48.590;8.854;2023-04-24T15:32:53;12.50;91.30
18225;DHT22;9237;48.590;8.854;2023-04-24T15:35:21;12.50;92.00
18225;DHT22;9237;48.590;8.854;2023-04-24T15:37:48;12.50;91.10
18225;DHT22;9237;48.590;8.854;2023-04-24T15:40:15;12.30;91.90
18225;DHT22;9237;48.590;8.854;2023-04-24T15:42:42;12.30;91.60
18225;DHT22;9237;48.590;8.854;2023-04-24T15:45:10;12.40;91.50
18225;DHT22;9237;48.590;8.854;2023-04-24T15:47:37;12.80;90.80
18225;DHT22;9237;48.590;8.854;2023-04-24T15:50:05;13.10;89.30
18225;DHT22;9237;48.590;8.854;2023-04-24T15:52:35;13.20;88.00
18225;DHT22;9237;48.590;8.854;2023-04-24T15:55:03;13.60;89.10
18225;DHT22;9237;48.590;8.854;2023-04-24T15:57:30;13.50;88.20